createdAt,value
2017-11-09T00:00:10.969Z,76.90
2017-11-09T00:05:22.969Z,76.60
2017-11-09T00:07:51.597Z,76.70
2017-11-09T00:10:18.555Z,76.20
2017-11-09T00:12:46.246Z,76.10
2017-11-09T00:15:14.828Z,75.90
2017-11-09T00:17:42.470Z,75.80
2017-11-09T00:20:10.182Z,75.90
2017-11-09T00:22:37.808Z,76.10
2017-11-09T00:25:05.453Z,75.80
2017-11-09T00:27:33.140Z,75.70
2017-11-09T00:30:00.781Z,76.20
2017-11-09T00:32:28.419Z,76.20
2017-11-09T00:34:57.454Z,76.40
2017-11-09T00:37:25.103Z,76.30
2017-11-09T00:39:52.739Z,76.10
2017-11-09T00:42:20.438Z,76.10
2017-11-09T00:44:48.084Z,76.40
2017-11-09T00:47:16.548Z,76.40
2017-11-09T00:49:45.203Z,76.60
2017-11-09T00:52:12.832Z,76.60
2017-11-09T00:54:40.485Z,76.60
2017-11-09T00:57:08.169Z,76.60
2017-11-09T00:59:36.618Z,76.20
2017-11-09T01:02:04.252Z,76.30
2017-11-09T01:04:32.805Z,76.80
2017-11-09T01:07:02.306Z,76.90
2017-11-09T01:09:29.933Z,76.90
2017-11-09T01:11:57.633Z,76.30
2017-11-09T01:14:25.274Z,76.10
2017-11-09T01:16:52.920Z,76.10
2017-11-09T01:19:21.476Z,76.10
2017-11-09T01:21:49.106Z,76.30
2017-11-09T01:26:44.901Z,76.90
2017-11-09T01:31:51.707Z,77.40
2017-11-09T01:34:19.365Z,77.70
2017-11-09T01:36:47.580Z,77.70
2017-11-09T01:39:16.135Z,77.90
2017-11-09T01:41:43.769Z,77.80
2017-11-09T01:46:50.988Z,77.40
2017-11-09T01:49:18.629Z,76.90
2017-11-09T01:51:46.260Z,76.50
2017-11-09T01:54:17.603Z,76.20
2017-11-09T01:56:44.262Z,76.20
2017-11-09T01:59:11.929Z,76.20
2017-11-09T02:01:39.649Z,76.90
2017-11-09T02:04:07.294Z,77.30
2017-11-09T02:06:35.746Z,77.30
2017-11-09T02:09:03.445Z,77.30
2017-11-09T02:11:31.079Z,77.60
2017-11-09T02:13:58.725Z,77.10
2017-11-09T02:16:26.407Z,77.20
2017-11-09T02:18:54.039Z,77.00
2017-11-09T02:21:27.538Z,77.20
2017-11-09T02:23:55.160Z,77.00
2017-11-09T02:29:05.838Z,76.90
2017-11-09T02:31:34.426Z,77.10
2017-11-09T02:34:02.059Z,76.90
2017-11-09T02:36:29.765Z,77.00
2017-11-09T02:38:57.396Z,77.00
2017-11-09T02:41:25.023Z,77.30
2017-11-09T02:43:52.717Z,77.20
2017-11-09T02:46:21.160Z,77.70
2017-11-09T02:48:48.785Z,77.50
2017-11-09T02:51:16.490Z,77.60
2017-11-09T02:56:12.640Z,77.90
2017-11-09T03:01:07.970Z,77.90
2017-11-09T03:03:35.595Z,77.50
2017-11-09T03:08:30.939Z,78.20
2017-11-09T03:10:58.570Z,78.10
2017-11-09T03:13:27.232Z,78.10
2017-11-09T03:15:54.889Z,77.90
2017-11-09T03:18:22.524Z,78.00
2017-11-09T03:20:50.214Z,77.90
2017-11-09T03:23:17.863Z,78.30
2017-11-09T03:25:46.331Z,78.80
2017-11-09T03:28:14.022Z,78.60
2017-11-09T03:30:41.667Z,78.90
2017-11-09T03:33:09.301Z,79.10
2017-11-09T03:35:37.013Z,78.80
2017-11-09T03:38:04.648Z,78.40
2017-11-09T03:40:32.285Z,78.50
2017-11-09T03:42:59.981Z,78.60
2017-11-09T03:45:28.552Z,78.90
2017-11-09T03:47:56.183Z,78.10
2017-11-09T03:53:03.608Z,77.20
2017-11-09T03:55:31.306Z,77.00
2017-11-09T03:57:58.941Z,77.20
2017-11-09T04:00:26.578Z,77.00
2017-11-09T04:02:54.297Z,76.90
2017-11-09T04:05:22.494Z,77.00
2017-11-09T04:07:50.135Z,76.90
2017-11-09T04:10:17.842Z,77.00
2017-11-09T04:12:45.481Z,76.10
2017-11-09T04:15:14.075Z,76.50
2017-11-09T04:17:41.757Z,76.70
2017-11-09T04:20:10.233Z,76.80
2017-11-09T04:22:38.717Z,76.60
2017-11-09T04:25:06.435Z,76.70
2017-11-09T04:27:34.042Z,76.70
2017-11-09T04:30:01.672Z,76.60
2017-11-09T04:32:29.363Z,76.50
2017-11-09T04:34:57.770Z,76.80
2017-11-09T04:37:25.413Z,77.00
2017-11-09T04:39:53.129Z,77.20
2017-11-09T04:42:20.781Z,77.00
2017-11-09T04:44:48.419Z,77.40
2017-11-09T04:47:16.612Z,77.50
2017-11-09T04:49:44.240Z,76.90
2017-11-09T04:52:11.876Z,77.60
2017-11-09T04:54:40.405Z,78.80
2017-11-09T04:57:08.036Z,78.60
2017-11-09T04:59:35.679Z,79.10
2017-11-09T05:02:03.367Z,78.70
2017-11-09T05:04:31.015Z,78.70
2017-11-09T05:06:58.660Z,79.00
2017-11-09T05:09:26.389Z,78.90
2017-11-09T05:11:54.019Z,79.50
2017-11-09T05:19:29.261Z,80.60
2017-11-09T05:21:56.957Z,81.40
2017-11-09T05:24:24.585Z,81.80
2017-11-09T05:26:54.426Z,80.90
2017-11-09T05:31:49.811Z,80.90
2017-11-09T05:34:17.468Z,80.90
2017-11-09T05:36:45.179Z,81.90
2017-11-09T05:39:12.848Z,81.30
2017-11-09T05:41:40.500Z,81.80
2017-11-09T05:44:08.193Z,81.80
2017-11-09T05:46:35.824Z,82.20
2017-11-09T05:49:03.458Z,81.80
2017-11-09T05:51:31.158Z,81.80
2017-11-09T05:53:58.782Z,81.80
2017-11-09T05:56:26.420Z,81.70
2017-11-09T05:58:54.100Z,81.70
2017-11-09T06:01:21.743Z,82.00
2017-11-09T06:03:49.351Z,81.90
2017-11-09T06:06:17.051Z,81.70
2017-11-09T06:08:44.670Z,82.00
2017-11-09T06:11:12.300Z,82.00
2017-11-09T06:16:07.606Z,83.10
2017-11-09T06:18:35.230Z,81.80
2017-11-09T06:21:02.933Z,81.90
2017-11-09T06:23:30.565Z,81.60
2017-11-09T06:25:58.219Z,81.80
2017-11-09T06:28:25.900Z,82.10
2017-11-09T06:30:53.547Z,82.50
2017-11-09T06:33:21.176Z,82.40
2017-11-09T06:35:48.888Z,81.90
2017-11-09T06:38:16.537Z,81.90
2017-11-09T06:40:44.163Z,82.40
2017-11-09T06:45:52.958Z,81.20
2017-11-09T06:48:20.652Z,80.50
2017-11-09T06:50:48.282Z,79.70
2017-11-09T06:53:15.913Z,79.10
2017-11-09T06:55:43.613Z,79.80
2017-11-09T06:58:11.250Z,79.80
2017-11-09T07:00:38.880Z,80.00
2017-11-09T07:03:06.584Z,80.40
2017-11-09T07:05:34.212Z,80.30
2017-11-09T07:08:01.841Z,80.40
2017-11-09T07:10:29.526Z,80.30
2017-11-09T07:12:57.154Z,80.30
2017-11-09T07:15:24.781Z,80.90
2017-11-09T07:17:52.881Z,80.70
2017-11-09T07:20:21.264Z,80.50
2017-11-09T07:22:48.912Z,80.10
2017-11-09T07:25:16.644Z,79.90
2017-11-09T07:27:44.352Z,79.50
2017-11-09T07:30:12.004Z,79.70
2017-11-09T07:32:39.689Z,79.50
2017-11-09T07:35:07.329Z,79.70
2017-11-09T07:37:34.983Z,79.80
2017-11-09T07:40:02.694Z,78.60
2017-11-09T07:42:30.338Z,78.50
2017-11-09T07:44:58.037Z,78.90
2017-11-09T07:47:25.696Z,79.10
2017-11-09T07:49:53.345Z,79.00
2017-11-09T07:52:21.927Z,78.00
2017-11-09T07:54:49.634Z,78.70
2017-11-09T07:57:17.288Z,77.40
2017-11-09T07:59:45.737Z,77.10
2017-11-09T08:02:13.442Z,77.60
2017-11-09T08:04:41.077Z,78.20
2017-11-09T08:12:15.492Z,76.80
2017-11-09T08:14:43.221Z,76.90
2017-11-09T08:17:11.696Z,77.00
2017-11-09T08:19:40.148Z,76.60
2017-11-09T08:22:07.844Z,76.20
2017-11-09T08:24:37.874Z,75.70
2017-11-09T08:27:07.489Z,75.80
2017-11-09T08:32:15.984Z,74.50
2017-11-09T08:34:44.601Z,73.40
2017-11-09T08:37:12.235Z,72.40
2017-11-09T08:39:40.870Z,69.70
2017-11-09T08:42:08.505Z,72.40
2017-11-09T08:44:36.145Z,70.60
2017-11-09T08:47:03.834Z,71.60
2017-11-09T08:49:31.468Z,69.30
2017-11-09T08:51:59.106Z,70.40
2017-11-09T08:54:27.670Z,70.90
2017-11-09T08:59:23.779Z,72.20
2017-11-09T09:01:51.468Z,72.40
2017-11-09T09:04:19.111Z,72.50
2017-11-09T09:06:47.553Z,74.30
2017-11-09T09:09:15.259Z,73.60
2017-11-09T09:11:42.888Z,72.60
2017-11-09T09:14:10.520Z,72.00
2017-11-09T09:16:38.207Z,71.90
2017-11-09T09:19:05.842Z,68.30
2017-11-09T09:29:39.461Z,61.40
2017-11-09T09:32:07.080Z,65.10
2017-11-09T09:42:40.237Z,61.40
2017-11-09T09:45:07.884Z,60.30
2017-11-09T09:47:35.505Z,61.20
2017-11-09T09:50:03.219Z,59.80
2017-11-09T09:52:31.665Z,59.80
2017-11-09T09:54:59.303Z,60.20
2017-11-09T09:57:27.948Z,60.00
2017-11-09T09:59:55.577Z,61.40
2017-11-09T10:02:23.205Z,59.60
2017-11-09T10:04:50.923Z,60.70
2017-11-09T10:07:18.545Z,61.40
2017-11-09T10:09:46.181Z,60.20
2017-11-09T10:12:13.874Z,60.70
2017-11-09T10:14:41.527Z,59.70
2017-11-09T10:17:09.156Z,60.70
2017-11-09T10:19:36.858Z,60.80
2017-11-09T10:22:04.486Z,60.50
2017-11-09T10:24:32.112Z,58.60
2017-11-09T10:27:00.087Z,59.40
2017-11-09T10:29:27.454Z,60.40
2017-11-09T10:31:55.093Z,61.00
2017-11-09T10:34:22.810Z,59.30
2017-11-09T10:36:50.435Z,60.40
2017-11-09T10:41:45.801Z,60.90
2017-11-09T10:44:13.437Z,60.80
2017-11-09T10:46:41.069Z,62.30
2017-11-09T10:49:08.769Z,61.20
2017-11-09T10:51:36.398Z,62.10
2017-11-09T10:54:04.036Z,61.30
2017-11-09T10:56:32.614Z,61.60
2017-11-09T10:59:00.250Z,61.80
2017-11-09T11:01:27.875Z,62.40
2017-11-09T11:03:55.585Z,60.90
2017-11-09T11:09:02.348Z,59.90
2017-11-09T11:11:29.993Z,61.00
2017-11-09T11:13:57.622Z,61.10
2017-11-09T11:18:52.952Z,61.80
2017-11-09T11:21:20.586Z,62.70
2017-11-09T11:26:15.922Z,62.70
2017-11-09T11:28:43.562Z,62.60
2017-11-09T11:31:11.576Z,62.80
2017-11-09T11:33:39.854Z,62.40
2017-11-09T11:36:08.439Z,63.00
2017-11-09T11:38:37.080Z,63.20
2017-11-09T11:43:33.313Z,63.40
2017-11-09T11:46:01.014Z,62.50
2017-11-09T11:48:28.646Z,62.60
2017-11-09T11:50:56.266Z,63.20
2017-11-09T11:53:24.570Z,63.80
2017-11-09T11:55:52.033Z,64.30
2017-11-09T11:58:20.387Z,63.20
2017-11-09T12:00:48.092Z,63.90
2017-11-09T12:03:16.569Z,64.10
2017-11-09T12:05:44.185Z,63.60
2017-11-09T12:08:11.925Z,63.80
2017-11-09T12:10:39.561Z,64.50
2017-11-09T12:13:08.021Z,64.20
2017-11-09T12:15:35.705Z,64.30
2017-11-09T12:18:03.355Z,63.90
2017-11-09T12:20:31.883Z,64.00
2017-11-09T12:22:59.567Z,65.10
2017-11-09T12:25:27.202Z,65.80
2017-11-09T12:27:54.844Z,65.80
2017-11-09T12:30:23.362Z,66.40
2017-11-09T12:35:30.146Z,66.20
2017-11-09T12:37:57.779Z,65.50
2017-11-09T12:40:25.423Z,64.50
2017-11-09T12:42:53.114Z,65.40
2017-11-09T12:45:20.753Z,66.20
2017-11-09T12:47:48.392Z,66.90
2017-11-09T12:50:16.963Z,67.00
2017-11-09T12:55:13.942Z,66.90
2017-11-09T12:57:42.595Z,66.80
2017-11-09T13:00:10.220Z,67.70
2017-11-09T13:02:38.670Z,67.60
2017-11-09T13:05:06.374Z,67.70
2017-11-09T13:07:34.011Z,68.00
2017-11-09T13:10:01.642Z,68.30
2017-11-09T13:12:29.328Z,68.30
2017-11-09T13:14:56.978Z,68.40
2017-11-09T13:17:24.610Z,68.00
2017-11-09T13:19:52.304Z,68.30
2017-11-09T13:22:20.008Z,69.20
2017-11-09T13:24:47.586Z,69.60
2017-11-09T13:27:15.263Z,69.40
2017-11-09T13:29:42.900Z,69.40
2017-11-09T13:32:10.547Z,69.50
2017-11-09T13:34:38.273Z,69.30
2017-11-09T13:37:05.905Z,69.70
2017-11-09T13:39:33.540Z,69.60
2017-11-09T13:42:01.271Z,69.50
2017-11-09T13:44:28.897Z,69.20
2017-11-09T13:46:56.537Z,69.60
2017-11-09T13:49:24.217Z,69.60
2017-11-09T13:51:51.858Z,69.50
2017-11-09T13:54:20.471Z,69.50
2017-11-09T13:56:48.180Z,69.20
2017-11-09T14:01:56.458Z,69.10
2017-11-09T14:04:24.093Z,69.50
2017-11-09T14:06:51.722Z,70.40
2017-11-09T14:09:19.451Z,70.20
2017-11-09T14:11:47.081Z,71.20
2017-11-09T14:14:14.805Z,70.40
2017-11-09T14:19:10.045Z,70.30
2017-11-09T14:21:37.683Z,69.70
2017-11-09T14:24:05.366Z,69.80
2017-11-09T14:26:32.993Z,69.90
2017-11-09T14:29:00.624Z,69.80
2017-11-09T14:31:28.308Z,69.10
2017-11-09T14:33:55.935Z,68.80
2017-11-09T14:36:29.018Z,68.50
2017-11-09T14:38:53.458Z,69.10
2017-11-09T14:41:21.775Z,68.80
2017-11-09T14:43:49.405Z,68.90
2017-11-09T14:48:45.458Z,68.80
2017-11-09T14:51:13.088Z,69.20
2017-11-09T14:53:40.783Z,68.80
2017-11-09T14:56:08.462Z,68.20
2017-11-09T14:58:36.124Z,67.70
2017-11-09T15:01:03.837Z,67.60
2017-11-09T15:03:31.459Z,67.00
2017-11-09T15:05:59.092Z,68.10
2017-11-09T15:08:27.634Z,68.30
2017-11-09T15:10:55.729Z,68.90
2017-11-09T15:13:24.185Z,69.00
2017-11-09T15:18:30.427Z,69.10
2017-11-09T15:20:58.128Z,68.10
2017-11-09T15:25:53.384Z,68.30
2017-11-09T15:28:21.074Z,67.70
2017-11-09T15:30:48.692Z,68.00
2017-11-09T15:33:16.368Z,68.70
2017-11-09T15:35:49.639Z,68.60
2017-11-09T15:38:17.270Z,68.90
2017-11-09T15:40:44.891Z,68.90
2017-11-09T15:43:12.576Z,69.00
2017-11-09T15:45:40.198Z,69.20
2017-11-09T15:48:07.824Z,69.20
2017-11-09T15:53:03.142Z,69.40
2017-11-09T15:55:30.765Z,69.30
2017-11-09T15:57:58.478Z,70.00
2017-11-09T16:00:26.119Z,69.90
2017-11-09T16:02:53.749Z,69.90
2017-11-09T16:05:21.458Z,70.20
2017-11-09T16:07:49.931Z,69.90
2017-11-09T16:12:45.269Z,70.10
2017-11-09T16:15:12.899Z,70.00
2017-11-09T16:17:40.547Z,69.50
2017-11-09T16:20:08.254Z,69.40
2017-11-09T16:22:36.909Z,69.20
2017-11-09T16:25:04.548Z,70.20
2017-11-09T16:27:32.251Z,70.10
2017-11-09T16:29:59.898Z,69.90
2017-11-09T16:32:28.480Z,70.00
2017-11-09T16:40:03.008Z,70.30
2017-11-09T16:42:36.243Z,70.50
2017-11-09T16:45:03.935Z,70.80
2017-11-09T16:47:31.566Z,70.30
2017-11-09T16:49:59.209Z,70.80
2017-11-09T16:52:26.893Z,71.00
2017-11-09T16:54:54.529Z,71.40
2017-11-09T16:57:22.174Z,71.50
2017-11-09T16:59:50.018Z,71.60
2017-11-09T17:02:17.602Z,71.40
2017-11-09T17:07:16.823Z,71.80
2017-11-09T17:12:12.693Z,71.00
2017-11-09T17:14:40.380Z,71.70
2017-11-09T17:17:08.014Z,71.60
2017-11-09T17:19:35.646Z,71.30
2017-11-09T17:22:03.338Z,71.60
2017-11-09T17:24:30.961Z,72.30
2017-11-09T17:26:58.599Z,72.70
2017-11-09T17:29:26.304Z,71.10
2017-11-09T17:31:53.928Z,70.90
2017-11-09T17:34:21.561Z,71.10
2017-11-09T17:36:49.254Z,71.20
2017-11-09T17:39:16.888Z,71.10
2017-11-09T17:41:44.521Z,71.00
2017-11-09T17:44:12.208Z,70.50
2017-11-09T17:46:39.841Z,70.30
2017-11-09T17:49:07.485Z,69.90
2017-11-09T17:54:15.761Z,70.80
2017-11-09T17:56:51.934Z,71.10
2017-11-09T17:59:23.213Z,72.10
2017-11-09T18:01:50.916Z,71.80
2017-11-09T18:04:18.548Z,72.40
2017-11-09T18:06:46.196Z,71.80
2017-11-09T18:09:13.883Z,71.20
2017-11-09T18:11:41.507Z,71.70
2017-11-09T18:14:09.137Z,70.40
2017-11-09T18:16:36.848Z,70.60
2017-11-09T18:19:04.460Z,70.30
2017-11-09T18:24:16.933Z,69.50
2017-11-09T18:26:44.569Z,68.90
2017-11-09T18:29:13.015Z,69.10
2017-11-09T18:31:43.037Z,69.80
2017-11-09T18:34:10.665Z,70.20
2017-11-09T18:36:39.722Z,70.60
2017-11-09T18:39:07.409Z,70.80
2017-11-09T18:41:35.046Z,70.50
2017-11-09T18:44:04.440Z,69.90
2017-11-09T18:46:32.167Z,70.00
2017-11-09T18:48:59.814Z,69.50
2017-11-09T18:51:27.421Z,69.20
2017-11-09T18:53:55.119Z,69.70
2017-11-09T18:56:22.742Z,69.70
2017-11-09T18:58:50.369Z,69.40
2017-11-09T19:04:03.323Z,69.20
2017-11-09T19:06:31.030Z,69.00
2017-11-09T19:08:58.661Z,68.80
2017-11-09T19:11:27.314Z,69.00
2017-11-09T19:13:55.023Z,68.70
2017-11-09T19:16:22.652Z,69.50
2017-11-09T19:18:51.088Z,69.50
2017-11-09T19:21:18.774Z,70.10
2017-11-09T19:23:46.400Z,69.60
2017-11-09T19:26:14.051Z,69.90
2017-11-09T19:28:41.731Z,69.80
2017-11-09T19:31:10.201Z,69.50
2017-11-09T19:33:37.826Z,69.30
2017-11-09T19:36:05.538Z,69.90
2017-11-09T19:38:33.393Z,69.80
2017-11-09T19:41:01.524Z,70.70
2017-11-09T19:43:29.259Z,70.70
2017-11-09T19:45:57.749Z,70.50
2017-11-09T19:48:28.743Z,70.80
2017-11-09T19:50:56.443Z,70.80
2017-11-09T19:55:51.955Z,70.60
2017-11-09T19:58:19.817Z,71.00
2017-11-09T20:00:47.414Z,71.00
2017-11-09T20:03:15.063Z,71.00
2017-11-09T20:05:42.750Z,70.90
2017-11-09T20:08:10.437Z,70.60
2017-11-09T20:10:38.032Z,71.00
2017-11-09T20:13:05.719Z,71.60
2017-11-09T20:18:12.937Z,71.50
2017-11-09T20:20:41.073Z,71.10
2017-11-09T20:23:09.609Z,70.30
2017-11-09T20:25:37.311Z,70.50
2017-11-09T20:28:04.976Z,69.60
2017-11-09T20:30:33.035Z,70.10
2017-11-09T20:33:00.703Z,70.30
2017-11-09T20:40:37.636Z,70.60
2017-11-09T20:43:03.395Z,70.60
2017-11-09T20:45:31.025Z,71.20
2017-11-09T20:47:58.733Z,71.70
2017-11-09T20:50:26.353Z,70.70
2017-11-09T20:55:33.831Z,71.70
2017-11-09T20:58:01.430Z,71.00
2017-11-09T21:00:29.058Z,71.00
2017-11-09T21:02:57.387Z,70.90
2017-11-09T21:05:25.438Z,71.60
2017-11-09T21:07:53.817Z,72.00
2017-11-09T21:10:21.440Z,72.40
2017-11-09T21:12:49.111Z,72.50
2017-11-09T21:15:16.884Z,71.70
2017-11-09T21:17:44.603Z,71.40
2017-11-09T21:20:13.071Z,73.00
2017-11-09T21:22:40.705Z,73.40
2017-11-09T21:25:09.043Z,73.60
2017-11-09T21:27:36.777Z,73.90
2017-11-09T21:30:06.439Z,74.30
2017-11-09T21:32:36.522Z,74.40
2017-11-09T21:35:04.008Z,74.50
2017-11-09T21:37:32.143Z,74.50
2017-11-09T21:40:00.235Z,74.80
2017-11-09T21:42:27.820Z,75.40
2017-11-09T21:44:55.589Z,74.90
2017-11-09T21:47:23.617Z,74.80
2017-11-09T21:49:51.661Z,75.10
2017-11-09T21:52:19.500Z,75.20
2017-11-09T21:54:49.658Z,75.20
2017-11-09T22:02:34.116Z,74.00
2017-11-09T22:07:52.128Z,74.30
2017-11-09T22:10:19.854Z,77.80
2017-11-09T22:15:41.202Z,73.20
2017-11-09T22:18:09.350Z,74.40
2017-11-09T22:20:36.988Z,74.80
2017-11-09T22:23:04.664Z,75.00
2017-11-09T22:30:54.800Z,75.40
2017-11-09T22:33:22.516Z,75.60
2017-11-09T22:35:50.292Z,75.00
2017-11-09T22:38:21.195Z,75.00
2017-11-09T22:40:49.630Z,75.00
2017-11-09T22:43:17.346Z,74.90
2017-11-09T22:45:49.521Z,74.90
2017-11-09T22:51:04.781Z,74.00
2017-11-09T22:53:32.416Z,74.20
2017-11-09T22:56:00.042Z,73.30
2017-11-09T22:58:27.730Z,73.90
2017-11-09T23:00:55.365Z,73.80
2017-11-09T23:03:22.985Z,74.30
2017-11-09T23:05:50.693Z,74.10
2017-11-09T23:08:18.316Z,73.60
2017-11-09T23:10:45.948Z,74.70
2017-11-09T23:13:13.637Z,73.70
2017-11-09T23:15:41.939Z,73.60
2017-11-09T23:18:09.382Z,73.30
2017-11-09T23:20:37.081Z,73.00
2017-11-09T23:23:04.712Z,72.50
2017-11-09T23:25:32.389Z,72.40
2017-11-09T23:30:39.843Z,73.20
2017-11-09T23:33:07.589Z,73.30
2017-11-09T23:35:35.226Z,72.00
2017-11-09T23:38:02.857Z,72.40
2017-11-09T23:40:31.105Z,72.30
2017-11-09T23:42:58.779Z,73.20
2017-11-09T23:45:26.776Z,72.80
2017-11-09T23:50:22.117Z,72.90
2017-11-09T23:52:50.083Z,72.40
2017-11-09T23:55:17.773Z,72.30
2017-11-09T23:57:45.408Z,72.20
